sensor_id;sensor_type;location;lat;lon;timestamp;temperature;humidity
10089;DHT22;51898;49.864;8.550;2022-10-17T00:00:00;13.00;99.90
10089;DHT22;51898;49.864;8.550;2022-10-17T00:03:02;13.10;99.90
10089;DHT22;51898;49.864;8.550;2022-10-17T00:06:10;13.10;99.90
10089;DHT22;51898;49.864;8.550;2022-10-17T00:09:12;13.10;99.90
10089;DHT22;51898;49.864;8.550;2022-10-17T00:12:14;13.10;99.90
10089;DHT22;51898;49.864;8.550;2022-10-17T00:15:17;13.10;99.90
10089;DHT22;51898;49.864;8.550;2022-10-17T00:18:19;13.00;99.90
10089;DHT22;51898;49.864;8.550;2022-10-17T00:21:22;13.00;99.90
10089;DHT22;51898;49.864;8.550;2022-10-17T00:24:24;13.00;99.90
10089;DHT22;51898;49.864;8.550;2022-10-17T00:27:26;13.00;99.90
10089;DHT22;51898;49.864;8.550;2022-10-17T00:30:27;12.90;99.90
10089;DHT22;51898;49.864;8.550;2022-10-17T00:33:30;12.90;99.90
10089;DHT22;51898;49.864;8.550;2022-10-17T00:36:32;12.90;99.90
10089;DHT22;51898;49.864;8.550;2022-10-17T00:39:35;12.90;99.90
10089;DHT22;51898;49.864;8.550;2022-10-17T00:42:36;13.00;99.90
10089;DHT22;51898;49.864;8.550;2022-10-17T00:45:38;13.00;99.90
10089;DHT22;51898;49.864;8.550;2022-10-17T00:48:40;13.00;99.90
10089;DHT22;51898;49.864;8.550;2022-10-17T00:51:45;13.00;99.90
10089;DHT22;51898;49.864;8.550;2022-10-17T00:54:53;13.00;99.90
10089;DHT22;51898;49.864;8.550;2022-10-17T00:57:58;13.00;99.90
10089;DHT22;51898;49.864;8.550;2022-10-17T01:01:01;12.90;99.90
10089;DHT22;51898;49.864;8.550;2022-10-17T01:04:03;12.90;99.90
10089;DHT22;51898;49.864;8.550;2022-10-17T01:07:05;12.80;99.90
10089;DHT22;51898;49.864;8.550;2022-10-17T01:10:07;12.80;99.90
10089;DHT22;51898;49.864;8.550;2022-10-17T01:13:14;12.80;99.90
10089;DHT22;51898;49.864;8.550;2022-10-17T01:23:26;12.70;99.90
10089;DHT22;51898;49.864;8.550;2022-10-17T01:43:28;12.60;99.90
10089;DHT22;51898;49.864;8.550;2022-10-17T01:46:39;12.70;99.90
10089;DHT22;51898;49.864;8.550;2022-10-17T01:49:44;12.60;99.90
10089;DHT22;51898;49.864;8.550;2022-10-17T01:52:51;12.60;99.90
10089;DHT22;51898;49.864;8.550;2022-10-17T01:55:55;12.40;99.90
10089;DHT22;51898;49.864;8.550;2022-10-17T01:59:03;12.40;99.90
10089;DHT22;51898;49.864;8.550;2022-10-17T02:02:08;12.40;99.90
10089;DHT22;51898;49.864;8.550;2022-10-17T02:05:10;12.40;99.90
10089;DHT22;51898;49.864;8.550;2022-10-17T02:08:13;12.40;99.90
10089;DHT22;51898;49.864;8.550;2022-10-17T02:11:18;12.30;99.90
10089;DHT22;51898;49.864;8.550;2022-10-17T02:14:47;12.30;99.90
10089;DHT22;51898;49.864;8.550;2022-10-17T02:18:13;12.20;99.90
10089;DHT22;51898;49.864;8.550;2022-10-17T02:22:07;12.10;99.90
10089;DHT22;51898;49.864;8.550;2022-10-17T02:31:25;12.10;99.90
10089;DHT22;51898;49.864;8.550;2022-10-17T02:34:37;12.10;99.90
10089;DHT22;51898;49.864;8.550;2022-10-17T02:37:42;12.00;99.90
10089;DHT22;51898;49.864;8.550;2022-10-17T02:40:45;12.10;99.90
10089;DHT22;51898;49.864;8.550;2022-10-17T02:43:51;12.10;99.90
10089;DHT22;51898;49.864;8.550;2022-10-17T02:47:18;12.10;99.90
10089;DHT22;51898;49.864;8.550;2022-10-17T02:50:27;12.10;99.90
10089;DHT22;51898;49.864;8.550;2022-10-17T02:53:48;12.00;99.90
10089;DHT22;51898;49.864;8.550;2022-10-17T02:57:07;12.00;99.90
10089;DHT22;51898;49.864;8.550;2022-10-17T03:00:13;12.00;99.90
10089;DHT22;51898;49.864;8.550;2022-10-17T03:03:27;12.00;99.90
10089;DHT22;51898;49.864;8.550;2022-10-17T03:06:28;12.00;99.90
10089;DHT22;51898;49.864;8.550;2022-10-17T03:09:30;11.90;99.90
10089;DHT22;51898;49.864;8.550;2022-10-17T03:12:32;12.00;99.90
10089;DHT22;51898;49.864;8.550;2022-10-17T03:15:34;12.00;99.90
10089;DHT22;51898;49.864;8.550;2022-10-17T03:18:35;12.00;99.90
10089;DHT22;51898;49.864;8.550;2022-10-17T03:21:37;12.00;99.90
10089;DHT22;51898;49.864;8.550;2022-10-17T03:24:38;11.90;99.90
10089;DHT22;51898;49.864;8.550;2022-10-17T03:27:40;11.90;99.90
10089;DHT22;51898;49.864;8.550;2022-10-17T03:30:41;12.00;99.90
10089;DHT22;51898;49.864;8.550;2022-10-17T03:33:43;12.00;99.90
10089;DHT22;51898;49.864;8.550;2022-10-17T03:36:48;12.00;99.90
10089;DHT22;51898;49.864;8.550;2022-10-17T03:39:49;12.00;99.90
10089;DHT22;51898;49.864;8.550;2022-10-17T03:42:51;12.00;99.90
10089;DHT22;51898;49.864;8.550;2022-10-17T03:45:52;12.00;99.90
10089;DHT22;51898;49.864;8.550;2022-10-17T03:48:54;11.90;99.90
10089;DHT22;51898;49.864;8.550;2022-10-17T03:51:56;11.90;99.90
10089;DHT22;51898;49.864;8.550;2022-10-17T03:54:57;11.90;99.90
10089;DHT22;51898;49.864;8.550;2022-10-17T03:57:59;11.90;99.90
10089;DHT22;51898;49.864;8.550;2022-10-17T04:01:04;11.90;99.90
10089;DHT22;51898;49.864;8.550;2022-10-17T04:04:06;11.90;99.90
10089;DHT22;51898;49.864;8.550;2022-10-17T04:07:07;11.80;99.90
10089;DHT22;51898;49.864;8.550;2022-10-17T04:10:09;11.80;99.90
10089;DHT22;51898;49.864;8.550;2022-10-17T04:13:11;11.80;99.90
10089;DHT22;51898;49.864;8.550;2022-10-17T04:16:15;11.80;99.90
10089;DHT22;51898;49.864;8.550;2022-10-17T04:19:17;11.80;99.90
10089;DHT22;51898;49.864;8.550;2022-10-17T04:22:18;11.80;99.90
10089;DHT22;51898;49.864;8.550;2022-10-17T04:25:20;11.80;99.90
10089;DHT22;51898;49.864;8.550;2022-10-17T04:28:22;11.90;99.90
10089;DHT22;51898;49.864;8.550;2022-10-17T04:31:24;11.90;99.90
10089;DHT22;51898;49.864;8.550;2022-10-17T04:34:25;11.90;99.90
10089;DHT22;51898;49.864;8.550;2022-10-17T04:37:28;11.80;99.90
10089;DHT22;51898;49.864;8.550;2022-10-17T04:40:29;11.90;99.90
10089;DHT22;51898;49.864;8.550;2022-10-17T04:43:33;11.90;99.90
10089;DHT22;51898;49.864;8.550;2022-10-17T04:46:38;11.80;99.90
10089;DHT22;51898;49.864;8.550;2022-10-17T04:49:40;11.80;99.90
10089;DHT22;51898;49.864;8.550;2022-10-17T04:52:47;11.90;99.90
10089;DHT22;51898;49.864;8.550;2022-10-17T04:55:48;11.90;99.90
10089;DHT22;51898;49.864;8.550;2022-10-17T04:58:50;11.80;99.90
10089;DHT22;51898;49.864;8.550;2022-10-17T05:01:52;11.80;99.90
10089;DHT22;51898;49.864;8.550;2022-10-17T05:04:54;11.80;99.90
10089;DHT22;51898;49.864;8.550;2022-10-17T05:07:55;11.80;99.90
10089;DHT22;51898;49.864;8.550;2022-10-17T05:10:57;11.80;99.90
10089;DHT22;51898;49.864;8.550;2022-10-17T05:14:03;11.80;99.90
10089;DHT22;51898;49.864;8.550;2022-10-17T05:17:05;11.80;99.90
10089;DHT22;51898;49.864;8.550;2022-10-17T05:20:10;11.80;99.90
10089;DHT22;51898;49.864;8.550;2022-10-17T05:23:12;11.90;99.90
10089;DHT22;51898;49.864;8.550;2022-10-17T05:26:14;11.80;99.90
10089;DHT22;51898;49.864;8.550;2022-10-17T05:29:15;11.80;99.90
10089;DHT22;51898;49.864;8.550;2022-10-17T05:32:17;11.80;99.90
10089;DHT22;51898;49.864;8.550;2022-10-17T05:35:19;11.70;99.90
10089;DHT22;51898;49.864;8.550;2022-10-17T05:38:21;11.70;99.90
10089;DHT22;51898;49.864;8.550;2022-10-17T05:41:23;11.70;99.90
10089;DHT22;51898;49.864;8.550;2022-10-17T05:44:24;11.60;99.90
10089;DHT22;51898;49.864;8.550;2022-10-17T05:47:26;11.50;99.90
10089;DHT22;51898;49.864;8.550;2022-10-17T05:50:28;11.40;99.90
10089;DHT22;51898;49.864;8.550;2022-10-17T05:53:31;11.40;99.90
10089;DHT22;51898;49.864;8.550;2022-10-17T05:56:34;11.40;99.90
10089;DHT22;51898;49.864;8.550;2022-10-17T05:59:35;11.40;99.90
10089;DHT22;51898;49.864;8.550;2022-10-17T06:02:37;11.30;99.90
10089;DHT22;51898;49.864;8.550;2022-10-17T06:05:39;11.40;99.90
10089;DHT22;51898;49.864;8.550;2022-10-17T06:08:43;11.40;99.90
10089;DHT22;51898;49.864;8.550;2022-10-17T06:11:45;11.40;99.90
10089;DHT22;51898;49.864;8.550;2022-10-17T06:14:46;11.50;99.90
10089;DHT22;51898;49.864;8.550;2022-10-17T06:17:48;11.50;99.90
10089;DHT22;51898;49.864;8.550;2022-10-17T06:20:49;11.60;99.90
10089;DHT22;51898;49.864;8.550;2022-10-17T06:23:52;11.70;99.90
10089;DHT22;51898;49.864;8.550;2022-10-17T06:26:53;11.70;99.90
10089;DHT22;51898;49.864;8.550;2022-10-17T06:29:55;11.80;99.90
10089;DHT22;51898;49.864;8.550;2022-10-17T06:32:56;11.80;99.90
10089;DHT22;51898;49.864;8.550;2022-10-17T06:35:58;11.90;99.90
10089;DHT22;51898;49.864;8.550;2022-10-17T06:39:00;12.00;99.90
10089;DHT22;51898;49.864;8.550;2022-10-17T06:42:02;12.00;99.90
10089;DHT22;51898;49.864;8.550;2022-10-17T06:45:05;12.20;99.90
10089;DHT22;51898;49.864;8.550;2022-10-17T06:48:07;12.30;99.90
10089;DHT22;51898;49.864;8.550;2022-10-17T06:51:09;12.40;99.90
10089;DHT22;51898;49.864;8.550;2022-10-17T06:54:11;12.50;99.90
10089;DHT22;51898;49.864;8.550;2022-10-17T06:57:13;12.50;99.90
10089;DHT22;51898;49.864;8.550;2022-10-17T07:00:15;12.60;99.90
10089;DHT22;51898;49.864;8.550;2022-10-17T07:03:17;12.70;99.90
10089;DHT22;51898;49.864;8.550;2022-10-17T07:06:18;12.70;99.90
10089;DHT22;51898;49.864;8.550;2022-10-17T07:09:20;12.80;99.90
10089;DHT22;51898;49.864;8.550;2022-10-17T07:12:23;12.90;99.90
10089;DHT22;51898;49.864;8.550;2022-10-17T07:15:25;13.10;99.90
10089;DHT22;51898;49.864;8.550;2022-10-17T07:18:28;13.20;99.90
10089;DHT22;51898;49.864;8.550;2022-10-17T07:21:29;13.40;99.90
10089;DHT22;51898;49.864;8.550;2022-10-17T07:24:37;13.50;99.90
10089;DHT22;51898;49.864;8.550;2022-10-17T07:27:38;13.70;99.90
10089;DHT22;51898;49.864;8.550;2022-10-17T07:30:40;13.90;99.90
10089;DHT22;51898;49.864;8.550;2022-10-17T07:33:42;14.00;99.90
10089;DHT22;51898;49.864;8.550;2022-10-17T07:36:45;14.10;99.90
10089;DHT22;51898;49.864;8.550;2022-10-17T07:39:46;14.20;99.90
10089;DHT22;51898;49.864;8.550;2022-10-17T07:42:48;14.30;99.90
10089;DHT22;51898;49.864;8.550;2022-10-17T07:45:50;14.40;99.90
10089;DHT22;51898;49.864;8.550;2022-10-17T07:48:52;14.50;99.90
10089;DHT22;51898;49.864;8.550;2022-10-17T07:51:53;14.60;99.90
10089;DHT22;51898;49.864;8.550;2022-10-17T07:54:55;14.80;99.90
10089;DHT22;51898;49.864;8.550;2022-10-17T07:57:57;15.00;99.90
10089;DHT22;51898;49.864;8.550;2022-10-17T08:01:06;15.20;99.90
10089;DHT22;51898;49.864;8.550;2022-10-17T08:04:14;15.30;99.90
10089;DHT22;51898;49.864;8.550;2022-10-17T08:07:17;15.40;99.90
10089;DHT22;51898;49.864;8.550;2022-10-17T08:10:24;15.50;99.90
10089;DHT22;51898;49.864;8.550;2022-10-17T08:13:30;15.70;99.90
10089;DHT22;51898;49.864;8.550;2022-10-17T08:16:31;15.90;99.90
10089;DHT22;51898;49.864;8.550;2022-10-17T08:19:33;15.90;99.90
10089;DHT22;51898;49.864;8.550;2022-10-17T08:22:35;16.00;99.90
10089;DHT22;51898;49.864;8.550;2022-10-17T08:25:38;16.00;99.90
10089;DHT22;51898;49.864;8.550;2022-10-17T08:28:40;16.10;99.90
10089;DHT22;51898;49.864;8.550;2022-10-17T08:31:42;16.10;99.90
10089;DHT22;51898;49.864;8.550;2022-10-17T08:34:48;16.20;99.90
10089;DHT22;51898;49.864;8.550;2022-10-17T08:37:50;16.30;99.90
10089;DHT22;51898;49.864;8.550;2022-10-17T08:40:52;16.40;99.90
10089;DHT22;51898;49.864;8.550;2022-10-17T08:47:05;16.60;99.90
10089;DHT22;51898;49.864;8.550;2022-10-17T08:53:35;16.80;99.90
10089;DHT22;51898;49.864;8.550;2022-10-17T08:56:43;16.80;99.90
10089;DHT22;51898;49.864;8.550;2022-10-17T08:59:51;16.90;99.90
10089;DHT22;51898;49.864;8.550;2022-10-17T09:03:26;17.00;99.90
10089;DHT22;51898;49.864;8.550;2022-10-17T09:06:52;17.20;99.90
10089;DHT22;51898;49.864;8.550;2022-10-17T09:10:14;17.20;99.90
10089;DHT22;51898;49.864;8.550;2022-10-17T09:14:00;17.20;99.90
10089;DHT22;51898;49.864;8.550;2022-10-17T09:17:14;17.30;99.90
10089;DHT22;51898;49.864;8.550;2022-10-17T09:20:22;17.20;99.90
10089;DHT22;51898;49.864;8.550;2022-10-17T09:23:28;17.30;99.90
10089;DHT22;51898;49.864;8.550;2022-10-17T09:26:30;17.30;99.90
10089;DHT22;51898;49.864;8.550;2022-10-17T09:29:32;17.40;99.90
10089;DHT22;51898;49.864;8.550;2022-10-17T09:32:40;17.50;99.90
10089;DHT22;51898;49.864;8.550;2022-10-17T09:35:44;17.60;99.90
10089;DHT22;51898;49.864;8.550;2022-10-17T09:38:52;17.70;99.90
10089;DHT22;51898;49.864;8.550;2022-10-17T09:41:56;17.80;99.90
10089;DHT22;51898;49.864;8.550;2022-10-17T09:48:18;18.10;99.90
10089;DHT22;51898;49.864;8.550;2022-10-17T09:51:22;18.20;99.90
10089;DHT22;51898;49.864;8.550;2022-10-17T09:54:32;18.30;99.90
10089;DHT22;51898;49.864;8.550;2022-10-17T09:57:56;18.40;99.90
10089;DHT22;51898;49.864;8.550;2022-10-17T10:01:18;18.50;99.90
10089;DHT22;51898;49.864;8.550;2022-10-17T10:04:24;18.60;99.90
10089;DHT22;51898;49.864;8.550;2022-10-17T10:07:38;18.80;99.90
10089;DHT22;51898;49.864;8.550;2022-10-17T10:10:39;18.80;99.90
10089;DHT22;51898;49.864;8.550;2022-10-17T10:13:47;18.80;99.90
10089;DHT22;51898;49.864;8.550;2022-10-17T10:16:50;18.90;99.90
10089;DHT22;51898;49.864;8.550;2022-10-17T10:19:54;19.00;99.90
10089;DHT22;51898;49.864;8.550;2022-10-17T10:23:15;19.10;99.90
10089;DHT22;51898;49.864;8.550;2022-10-17T10:26:24;19.30;99.90
10089;DHT22;51898;49.864;8.550;2022-10-17T10:29:32;19.60;99.90
10089;DHT22;51898;49.864;8.550;2022-10-17T10:32:36;19.80;99.90
10089;DHT22;51898;49.864;8.550;2022-10-17T10:35:37;20.00;99.90
10089;DHT22;51898;49.864;8.550;2022-10-17T10:38:40;20.30;99.90
10089;DHT22;51898;49.864;8.550;2022-10-17T10:41:49;20.50;99.90
10089;DHT22;51898;49.864;8.550;2022-10-17T10:44:51;20.60;99.90
10089;DHT22;51898;49.864;8.550;2022-10-17T10:47:56;20.80;99.90
10089;DHT22;51898;49.864;8.550;2022-10-17T10:51:16;20.80;99.90
10089;DHT22;51898;49.864;8.550;2022-10-17T10:54:23;20.90;99.90
10089;DHT22;51898;49.864;8.550;2022-10-17T10:57:29;21.00;99.90
10089;DHT22;51898;49.864;8.550;2022-10-17T11:00:33;21.20;99.90
10089;DHT22;51898;49.864;8.550;2022-10-17T11:04:05;21.40;99.90
10089;DHT22;51898;49.864;8.550;2022-10-17T11:10:29;21.80;99.90
10089;DHT22;51898;49.864;8.550;2022-10-17T11:13:40;22.00;99.90
10089;DHT22;51898;49.864;8.550;2022-10-17T11:16:48;22.10;99.90
10089;DHT22;51898;49.864;8.550;2022-10-17T11:23:27;22.10;99.90
10089;DHT22;51898;49.864;8.550;2022-10-17T11:26:32;22.10;99.90
10089;DHT22;51898;49.864;8.550;2022-10-17T11:29:39;22.00;99.90
10089;DHT22;51898;49.864;8.550;2022-10-17T11:32:55;22.10;99.90
10089;DHT22;51898;49.864;8.550;2022-10-17T11:36:03;22.30;99.90
10089;DHT22;51898;49.864;8.550;2022-10-17T11:42:25;22.40;99.90
10089;DHT22;51898;49.864;8.550;2022-10-17T11:45:38;22.40;99.90
10089;DHT22;51898;49.864;8.550;2022-10-17T11:52:37;22.30;99.90
10089;DHT22;51898;49.864;8.550;2022-10-17T11:55:58;22.50;99.90
10089;DHT22;51898;49.864;8.550;2022-10-17T11:59:07;22.70;99.90
10089;DHT22;51898;49.864;8.550;2022-10-17T12:05:49;22.90;99.90
10089;DHT22;51898;49.864;8.550;2022-10-17T12:09:25;22.90;99.90
10089;DHT22;51898;49.864;8.550;2022-10-17T12:12:31;22.90;99.90
10089;DHT22;51898;49.864;8.550;2022-10-17T12:15:33;22.80;99.90
10089;DHT22;51898;49.864;8.550;2022-10-17T12:18:35;22.90;99.90
10089;DHT22;51898;49.864;8.550;2022-10-17T12:22:04;23.10;99.90
10089;DHT22;51898;49.864;8.550;2022-10-17T12:25:17;23.30;99.90
10089;DHT22;51898;49.864;8.550;2022-10-17T12:31:34;23.50;99.90
10089;DHT22;51898;49.864;8.550;2022-10-17T12:34:37;23.50;99.90
10089;DHT22;51898;49.864;8.550;2022-10-17T12:43:53;23.50;99.90
10089;DHT22;51898;49.864;8.550;2022-10-17T12:54:24;23.60;99.90
10089;DHT22;51898;49.864;8.550;2022-10-17T13:00:51;23.80;99.90
10089;DHT22;51898;49.864;8.550;2022-10-17T13:04:14;23.90;99.90
10089;DHT22;51898;49.864;8.550;2022-10-17T13:07:19;24.00;99.90
10089;DHT22;51898;49.864;8.550;2022-10-17T13:10:24;24.10;99.90
10089;DHT22;51898;49.864;8.550;2022-10-17T13:13:41;24.10;99.90
10089;DHT22;51898;49.864;8.550;2022-10-17T13:17:02;24.10;99.90
10089;DHT22;51898;49.864;8.550;2022-10-17T13:20:20;24.20;99.90
10089;DHT22;51898;49.864;8.550;2022-10-17T13:23:33;24.20;99.90
10089;DHT22;51898;49.864;8.550;2022-10-17T13:26:35;24.30;99.90
10089;DHT22;51898;49.864;8.550;2022-10-17T13:29:43;24.30;99.90
10089;DHT22;51898;49.864;8.550;2022-10-17T13:32:45;24.20;99.90
10089;DHT22;51898;49.864;8.550;2022-10-17T13:35:47;24.30;99.90
10089;DHT22;51898;49.864;8.550;2022-10-17T13:39:06;24.20;99.90
10089;DHT22;51898;49.864;8.550;2022-10-17T13:42:44;24.20;99.90
10089;DHT22;51898;49.864;8.550;2022-10-17T13:46:11;24.20;99.90
10089;DHT22;51898;49.864;8.550;2022-10-17T13:49:39;24.20;99.90
10089;DHT22;51898;49.864;8.550;2022-10-17T13:52:41;24.30;99.90
10089;DHT22;51898;49.864;8.550;2022-10-17T13:59:39;24.30;99.90
10089;DHT22;51898;49.864;8.550;2022-10-17T14:02:42;24.30;99.90
10089;DHT22;51898;49.864;8.550;2022-10-17T14:06:06;24.20;99.90
10089;DHT22;51898;49.864;8.550;2022-10-17T14:09:30;24.20;99.90
10089;DHT22;51898;49.864;8.550;2022-10-17T14:12:32;24.10;99.90
10089;DHT22;51898;49.864;8.550;2022-10-17T14:15:35;24.00;99.90
10089;DHT22;51898;49.864;8.550;2022-10-17T14:18:37;24.00;99.90
10089;DHT22;51898;49.864;8.550;2022-10-17T14:21:39;23.90;99.90
10089;DHT22;51898;49.864;8.550;2022-10-17T14:24:45;23.90;99.90
10089;DHT22;51898;49.864;8.550;2022-10-17T14:27:59;23.80;99.90
10089;DHT22;51898;49.864;8.550;2022-10-17T14:31:27;23.70;99.90
10089;DHT22;51898;49.864;8.550;2022-10-17T14:34:33;23.70;99.90
10089;DHT22;51898;49.864;8.550;2022-10-17T14:37:43;23.80;99.90
10089;DHT22;51898;49.864;8.550;2022-10-17T14:40:55;23.80;99.90
10089;DHT22;51898;49.864;8.550;2022-10-17T14:44:24;23.80;99.90
10089;DHT22;51898;49.864;8.550;2022-10-17T14:47:26;23.80;99.90
10089;DHT22;51898;49.864;8.550;2022-10-17T14:51:07;23.70;99.90
10089;DHT22;51898;49.864;8.550;2022-10-17T14:54:25;23.60;99.90
10089;DHT22;51898;49.864;8.550;2022-10-17T14:57:40;23.60;99.90
10089;DHT22;51898;49.864;8.550;2022-10-17T15:00:43;23.50;99.90
10089;DHT22;51898;49.864;8.550;2022-10-17T15:03:44;23.40;99.90
10089;DHT22;51898;49.864;8.550;2022-10-17T15:06:52;23.30;99.90
10089;DHT22;51898;49.864;8.550;2022-10-17T15:09:54;23.30;99.90
10089;DHT22;51898;49.864;8.550;2022-10-17T15:12:56;23.20;99.90
10089;DHT22;51898;49.864;8.550;2022-10-17T15:16:24;23.20;99.90
10089;DHT22;51898;49.864;8.550;2022-10-17T15:19:26;23.20;99.90
10089;DHT22;51898;49.864;8.550;2022-10-17T15:22:28;23.30;99.90
10089;DHT22;51898;49.864;8.550;2022-10-17T15:25:33;23.40;99.90
10089;DHT22;51898;49.864;8.550;2022-10-17T15:28:34;23.40;99.90
10089;DHT22;51898;49.864;8.550;2022-10-17T15:31:36;23.40;99.90
10089;DHT22;51898;49.864;8.550;2022-10-17T15:34:38;23.30;99.90
10089;DHT22;51898;49.864;8.550;2022-10-17T15:37:40;23.30;99.90
10089;DHT22;51898;49.864;8.550;2022-10-17T15:40:43;23.20;99.90
10089;DHT22;51898;49.864;8.550;2022-10-17T15:43:47;23.20;99.90
10089;DHT22;51898;49.864;8.550;2022-10-17T15:46:49;23.10;99.90
10089;DHT22;51898;49.864;8.550;2022-10-17T15:49:50;23.10;99.90
10089;DHT22;51898;49.864;8.550;2022-10-17T15:52:52;23.10;99.90
10089;DHT22;51898;49.864;8.550;2022-10-17T15:55:54;23.00;99.90
10089;DHT22;51898;49.864;8.550;2022-10-17T15:58:56;22.80;99.90
10089;DHT22;51898;49.864;8.550;2022-10-17T16:01:58;22.70;99.90
10089;DHT22;51898;49.864;8.550;2022-10-17T16:04:59;22.50;99.90
10089;DHT22;51898;49.864;8.550;2022-10-17T16:08:01;22.40;99.90
10089;DHT22;51898;49.864;8.550;2022-10-17T16:11:03;22.20;99.90
10089;DHT22;51898;49.864;8.550;2022-10-17T16:14:09;22.10;99.90
10089;DHT22;51898;49.864;8.550;2022-10-17T16:17:15;21.90;99.90
10089;DHT22;51898;49.864;8.550;2022-10-17T16:20:18;21.80;99.90
10089;DHT22;51898;49.864;8.550;2022-10-17T16:23:20;21.60;99.90
10089;DHT22;51898;49.864;8.550;2022-10-17T16:26:22;21.50;99.90
10089;DHT22;51898;49.864;8.550;2022-10-17T16:29:23;21.40;99.90
10089;DHT22;51898;49.864;8.550;2022-10-17T16:32:25;21.30;99.90
10089;DHT22;51898;49.864;8.550;2022-10-17T16:35:29;21.10;99.90
10089;DHT22;51898;49.864;8.550;2022-10-17T16:38:37;21.10;99.90
10089;DHT22;51898;49.864;8.550;2022-10-17T16:41:38;21.00;99.90
10089;DHT22;51898;49.864;8.550;2022-10-17T16:44:40;20.90;99.90
10089;DHT22;51898;49.864;8.550;2022-10-17T16:47:41;20.80;99.90
10089;DHT22;51898;49.864;8.550;2022-10-17T16:50:43;20.60;99.90
10089;DHT22;51898;49.864;8.550;2022-10-17T16:53:46;20.50;99.90
10089;DHT22;51898;49.864;8.550;2022-10-17T16:56:50;20.50;99.90
10089;DHT22;51898;49.864;8.550;2022-10-17T16:59:52;20.40;99.90
10089;DHT22;51898;49.864;8.550;2022-10-17T17:02:53;20.30;99.90
10089;DHT22;51898;49.864;8.550;2022-10-17T17:05:55;20.20;99.90
10089;DHT22;51898;49.864;8.550;2022-10-17T17:08:57;20.30;99.90
10089;DHT22;51898;49.864;8.550;2022-10-17T17:11:59;20.30;99.90
10089;DHT22;51898;49.864;8.550;2022-10-17T17:15:00;20.20;99.90
10089;DHT22;51898;49.864;8.550;2022-10-17T17:18:02;20.20;99.90
10089;DHT22;51898;49.864;8.550;2022-10-17T17:21:08;20.20;99.90
10089;DHT22;51898;49.864;8.550;2022-10-17T17:24:10;20.20;99.90
10089;DHT22;51898;49.864;8.550;2022-10-17T17:27:11;20.20;99.90
10089;DHT22;51898;49.864;8.550;2022-10-17T17:30:14;20.20;99.90
10089;DHT22;51898;49.864;8.550;2022-10-17T17:33:16;20.10;99.90
10089;DHT22;51898;49.864;8.550;2022-10-17T17:36:21;20.10;99.90
10089;DHT22;51898;49.864;8.550;2022-10-17T17:39:23;20.10;99.90
10089;DHT22;51898;49.864;8.550;2022-10-17T17:42:24;20.00;99.90
10089;DHT22;51898;49.864;8.550;2022-10-17T17:45:26;20.00;99.90
10089;DHT22;51898;49.864;8.550;2022-10-17T17:48:28;19.80;99.90
10089;DHT22;51898;49.864;8.550;2022-10-17T17:51:29;19.70;99.90
10089;DHT22;51898;49.864;8.550;2022-10-17T17:54:31;19.70;99.90
10089;DHT22;51898;49.864;8.550;2022-10-17T17:57:36;19.60;99.90
10089;DHT22;51898;49.864;8.550;2022-10-17T18:00:39;19.60;99.90
10089;DHT22;51898;49.864;8.550;2022-10-17T18:03:41;19.50;99.90
10089;DHT22;51898;49.864;8.550;2022-10-17T18:06:42;19.50;99.90
10089;DHT22;51898;49.864;8.550;2022-10-17T18:09:44;19.30;99.90
10089;DHT22;51898;49.864;8.550;2022-10-17T18:12:46;19.30;99.90
10089;DHT22;51898;49.864;8.550;2022-10-17T18:15:47;19.20;99.90
10089;DHT22;51898;49.864;8.550;2022-10-17T18:18:52;19.20;99.90
10089;DHT22;51898;49.864;8.550;2022-10-17T18:21:54;19.10;99.90
10089;DHT22;51898;49.864;8.550;2022-10-17T18:24:56;19.10;99.90
10089;DHT22;51898;49.864;8.550;2022-10-17T18:27:57;19.10;99.90
10089;DHT22;51898;49.864;8.550;2022-10-17T18:31:13;19.00;99.90
10089;DHT22;51898;49.864;8.550;2022-10-17T18:34:15;19.00;99.90
10089;DHT22;51898;49.864;8.550;2022-10-17T18:37:17;19.00;99.90
10089;DHT22;51898;49.864;8.550;2022-10-17T18:40:19;19.00;99.90
10089;DHT22;51898;49.864;8.550;2022-10-17T18:43:20;18.90;99.90
10089;DHT22;51898;49.864;8.550;2022-10-17T18:46:27;18.90;99.90
10089;DHT22;51898;49.864;8.550;2022-10-17T18:49:29;18.90;99.90
10089;DHT22;51898;49.864;8.550;2022-10-17T18:52:31;18.90;99.90
10089;DHT22;51898;49.864;8.550;2022-10-17T18:55:32;18.90;99.90
10089;DHT22;51898;49.864;8.550;2022-10-17T18:58:36;18.90;99.90
10089;DHT22;51898;49.864;8.550;2022-10-17T19:01:38;18.90;99.90
10089;DHT22;51898;49.864;8.550;2022-10-17T19:04:40;18.90;99.90
10089;DHT22;51898;49.864;8.550;2022-10-17T19:07:41;18.80;99.90
10089;DHT22;51898;49.864;8.550;2022-10-17T19:10:43;18.70;99.90
10089;DHT22;51898;49.864;8.550;2022-10-17T19:13:46;18.80;99.90
10089;DHT22;51898;49.864;8.550;2022-10-17T19:16:48;18.70;99.90
10089;DHT22;51898;49.864;8.550;2022-10-17T19:19:51;18.70;99.90
10089;DHT22;51898;49.864;8.550;2022-10-17T19:22:53;18.70;99.90
10089;DHT22;51898;49.864;8.550;2022-10-17T19:26:03;18.70;99.90
10089;DHT22;51898;49.864;8.550;2022-10-17T19:29:06;18.70;99.90
10089;DHT22;51898;49.864;8.550;2022-10-17T19:32:08;18.60;99.90
10089;DHT22;51898;49.864;8.550;2022-10-17T19:35:18;18.60;99.90
10089;DHT22;51898;49.864;8.550;2022-10-17T19:38:20;18.60;99.90
10089;DHT22;51898;49.864;8.550;2022-10-17T19:41:22;18.50;99.90
10089;DHT22;51898;49.864;8.550;2022-10-17T19:44:24;18.50;99.90
10089;DHT22;51898;49.864;8.550;2022-10-17T19:47:25;18.50;99.90
10089;DHT22;51898;49.864;8.550;2022-10-17T19:50:27;18.40;99.90
10089;DHT22;51898;49.864;8.550;2022-10-17T19:53:28;18.40;99.90
10089;DHT22;51898;49.864;8.550;2022-10-17T19:56:32;18.40;99.90
10089;DHT22;51898;49.864;8.550;2022-10-17T19:59:34;18.40;99.90
10089;DHT22;51898;49.864;8.550;2022-10-17T20:02:35;18.40;99.90
10089;DHT22;51898;49.864;8.550;2022-10-17T20:05:37;18.40;99.90
10089;DHT22;51898;49.864;8.550;2022-10-17T20:08:40;18.40;99.90
10089;DHT22;51898;49.864;8.550;2022-10-17T20:11:42;18.30;99.90
10089;DHT22;51898;49.864;8.550;2022-10-17T20:14:43;18.30;99.90
10089;DHT22;51898;49.864;8.550;2022-10-17T20:17:45;18.30;99.90
10089;DHT22;51898;49.864;8.550;2022-10-17T20:20:47;18.20;99.90
10089;DHT22;51898;49.864;8.550;2022-10-17T20:23:49;18.20;99.90
10089;DHT22;51898;49.864;8.550;2022-10-17T20:26:51;18.10;99.90
10089;DHT22;51898;49.864;8.550;2022-10-17T20:29:52;18.10;99.90
10089;DHT22;51898;49.864;8.550;2022-10-17T20:32:54;18.10;99.90
10089;DHT22;51898;49.864;8.550;2022-10-17T20:35:56;18.10;99.90
10089;DHT22;51898;49.864;8.550;2022-10-17T20:38:58;18.10;99.90
10089;DHT22;51898;49.864;8.550;2022-10-17T20:42:00;18.10;99.90
10089;DHT22;51898;49.864;8.550;2022-10-17T20:45:01;18.00;99.90
10089;DHT22;51898;49.864;8.550;2022-10-17T20:48:05;18.00;99.90
10089;DHT22;51898;49.864;8.550;2022-10-17T20:51:07;18.00;99.90